Airfield :
LOGIN :

Register | Disclaimer

   EN    FR    IT 

 










Legend :    VFR   Marginal VFR   IFR   Intensive IFR   Very Intensive IFR
Visi :
Ceiling :
>= 8 km
>= 3000ft
5 to 8 km
1000 to 3000 ft
1500m to 5 km
500 to 1000 ft
800 to 1500m
200 to 500 ft
< 800m
< 200 ft
Symbols :   Thunderstorms  Fog  Heavy snow  Heavy precipitations  Wind > 20 kt
SIGMETs :     Misc.  Thunderstorms  Icing  Turbulence  Mountain Waves  Volcanic Ashes







- Airport Elevation : 436 ft
- IATA code : ANG
- Download approach charts


LFBU - Angoulême Brie Champniers

CURRENT METAR :
  • 160700Z AUTO 12005KT 080V160 CAVOK 12/09 Q1021 TEMPO 3000 BR

EXPIRED METARs :
  • 160630Z AUTO VRB03KT CAVOK 11/09 Q1021 TEMPO 3000 BR
  • 160600Z AUTO 13003KT CAVOK 11/09 Q1021 TEMPO 3000 BR
  • 160530Z AUTO 12005KT 100V160 CAVOK 11/09 Q1021 TEMPO 3000 BR
  • 160500Z AUTO VRB02KT CAVOK 11/09 Q1021
  • 160430Z AUTO 14003KT 090V180 CAVOK 11/10 Q1021

TAF TAF LFBU
Valid from the 16 at 06:00 until the 17 at 06:00 UTC


160500Z 1606/1706 07005KT CAVOK
PROB40
TEMPO 1606/1608 3000 BR
BECMG 1620/1622 3000 BR BKN003
PROB40 1623/1706 0500 FG VV///
No reported NOTAMs for that airfield.



MET'MAP, your aeronautical weather chart ! - Copyright ORBIFLY December 2007 - Disclaimer

ORBIFLY MET'MAP TEAM :

Programming & Development : Alexandra Zaïnal
Concept & Development : Baudouin d'Aumeries
Co-Development & Prog : Marc-Olivier Méhu
Technical & hardware support : Manuel Goepfert

Contact : metmap@orbifly.com




SOURCES & CREDITS :

   NOAA